Time;durP1;ratioP1;P1;durP2;ratioP2;P2;SDS_P1;SDS_P2;PMS_P1;PMS_P2;Temp;Humidity;BMP_temperature;BMP_pressure;BME280_temperature;BME280_humidity;BME280_pressure;Samples;Min_cycle;Max_cycle;Signal;HPM_P1;HPM_P2
2022/12/27 00:00:28;;;;;;;22.75;13.60;;;19.80;99.90;;;;;;4918954;29;20692;-72
2022/12/27 00:02:55;;;;;;;22.10;13.40;;;19.80;99.90;;;;;;4918926;29;20233;-71
2022/12/27 00:05:22;;;;;;;33.97;13.35;;;19.80;99.90;;;;;;4919110;29;20212;-71
2022/12/27 00:07:48;;;;;;;23.13;13.55;;;19.80;99.90;;;;;;4919135;29;20212;-71
2022/12/27 00:10:15;;;;;;;18.05;12.30;;;19.80;99.90;;;;;;4919059;29;20209;-71
2022/12/27 00:12:42;;;;;;;21.83;11.93;;;19.80;99.90;;;;;;4917887;29;20232;-71
2022/12/27 00:15:09;;;;;;;23.40;13.20;;;19.80;99.90;;;;;;4918995;29;20580;-72
2022/12/27 06:07:12;;;;;;;4.60;4.05;;;19.40;99.90;;;;;;5226703;23;20232;-73
2022/12/27 06:09:39;;;;;;;8.70;5.07;;;19.40;99.90;;;;;;4918335;29;20220;-73
2022/12/27 06:12:06;;;;;;;5.35;4.75;;;19.40;99.90;;;;;;4921269;29;20209;-72
2022/12/27 06:14:32;;;;;;;12.73;4.78;;;19.30;99.90;;;;;;4921235;29;20210;-72
2022/12/27 06:16:59;;;;;;;5.50;4.35;;;19.40;99.90;;;;;;4921006;29;20224;-72
2022/12/27 06:19:26;;;;;;;4.70;4.03;;;19.30;99.90;;;;;;4921699;29;20204;-72
2022/12/27 06:21:52;;;;;;;7.15;4.07;;;19.30;99.90;;;;;;4921092;29;20212;-72
2022/12/27 06:24:21;;;;;;;5.03;4.13;;;19.40;99.90;;;;;;4921021;29;20201;-72
2022/12/27 06:26:47;;;;;;;6.05;3.97;;;19.30;99.90;;;;;;4921147;29;20224;-72
2022/12/27 06:29:14;;;;;;;6.30;4.25;;;19.50;99.90;;;;;;4920976;29;20256;-72
2022/12/27 06:31:41;;;;;;;3.67;3.38;;;19.30;99.90;;;;;;4920903;29;20241;-72
2022/12/27 06:34:10;;;;;;;6.15;3.67;;;19.30;99.90;;;;;;4920847;29;20228;-72
2022/12/27 06:36:36;;;;;;;5.13;3.92;;;19.30;99.90;;;;;;4920788;29;20233;-72
2022/12/27 06:39:03;;;;;;;6.45;4.10;;;19.30;99.90;;;;;;4920672;29;20235;-72
2022/12/27 06:41:31;;;;;;;4.22;3.80;;;19.40;99.90;;;;;;4920754;29;20208;-72
2022/12/27 06:43:58;;;;;;;6.18;4.15;;;19.30;99.90;;;;;;4920650;29;20201;-72
2022/12/27 06:46:25;;;;;;;5.93;3.85;;;19.30;99.90;;;;;;4920697;29;20232;-72
2022/12/27 06:48:52;;;;;;;3.63;3.33;;;19.40;99.90;;;;;;4920294;29;20703;-72
2022/12/27 06:51:20;;;;;;;5.03;3.38;;;19.40;99.90;;;;;;4920555;29;20212;-72
2022/12/27 06:53:47;;;;;;;10.02;3.72;;;19.30;99.90;;;;;;4920475;29;20209;-72
2022/12/27 06:56:16;;;;;;;6.88;3.72;;;19.30;99.90;;;;;;4920411;29;20231;-72
2022/12/27 06:58:44;;;;;;;5.97;3.58;;;19.40;99.90;;;;;;4920359;29;20252;-72
2022/12/27 07:01:13;;;;;;;3.70;3.38;;;19.30;99.90;;;;;;4920391;29;20213;-72
2022/12/27 07:03:40;;;;;;;4.07;3.67;;;19.40;99.90;;;;;;4919997;29;20590;-72
2022/12/27 07:06:10;;;;;;;5.18;3.70;;;19.30;99.90;;;;;;4919918;29;20720;-72
2022/12/27 07:08:37;;;;;;;4.63;3.25;;;19.30;99.90;;;;;;4920368;29;20217;-72
2022/12/27 07:11:06;;;;;;;5.13;3.22;;;19.30;99.90;;;;;;4920231;29;20201;-72
2022/12/27 07:13:34;;;;;;;3.55;3.00;;;19.30;99.90;;;;;;4920184;29;20212;-72
2022/12/27 07:16:03;;;;;;;10.10;3.38;;;19.30;99.90;;;;;;4920037;29;20228;-72
2022/12/27 07:18:30;;;;;;;4.50;3.45;;;19.20;99.90;;;;;;4921521;29;20621;-72
2022/12/27 07:20:57;;;;;;;6.00;3.15;;;19.30;99.90;;;;;;4919127;29;20744;-72
2022/12/27 07:23:23;;;;;;;6.45;3.92;;;19.30;99.90;;;;;;4919983;29;20212;-72
2022/12/27 07:25:50;;;;;;;4.03;2.90;;;19.40;99.90;;;;;;4919875;29;20232;-72
2022/12/27 07:28:17;;;;;;;7.18;2.80;;;19.30;99.90;;;;;;4919902;29;20212;-72
2022/12/27 07:30:43;;;;;;;3.38;3.05;;;19.30;99.90;;;;;;4919840;29;20204;-72
2022/12/27 07:33:11;;;;;;;8.48;3.45;;;19.30;99.90;;;;;;4919823;29;20256;-72
2022/12/27 07:35:38;;;;;;;4.72;2.97;;;19.20;99.90;;;;;;4919678;29;20209;-72
2022/12/27 07:38:05;;;;;;;3.05;2.65;;;19.30;99.90;;;;;;4919642;29;20220;-72
2022/12/27 07:40:31;;;;;;;3.85;3.13;;;19.20;99.90;;;;;;4919687;29;20204;-72
2022/12/27 07:42:58;;;;;;;12.65;3.42;;;19.30;99.90;;;;;;4919641;29;20204;-72
2022/12/27 07:45:24;;;;;;;6.68;3.00;;;19.40;99.90;;;;;;4919443;29;20695;-72
2022/12/27 07:47:52;;;;;;;4.15;2.67;;;19.20;99.90;;;;;;4919156;29;20688;-72
2022/12/27 07:50:20;;;;;;;6.43;2.78;;;19.20;99.90;;;;;;4919471;29;20220;-72
2022/12/27 07:52:46;;;;;;;2.83;2.60;;;19.20;99.90;;;;;;4919176;29;20216;-71
2022/12/27 07:55:13;;;;;;;3.63;3.30;;;19.30;99.90;;;;;;4919139;29;20737;-71
2022/12/27 07:57:40;;;;;;;8.07;3.03;;;19.20;99.90;;;;;;4919306;29;20627;-71
2022/12/27 08:00:08;;;;;;;5.63;2.95;;;19.30;99.90;;;;;;4919346;29;20216;-71
2022/12/27 08:02:35;;;;;;;3.75;2.88;;;19.20;99.90;;;;;;4919502;29;20209;-71
2022/12/27 08:05:01;;;;;;;7.10;3.72;;;19.30;99.90;;;;;;4919277;29;20213;-71
2022/12/27 08:07:29;;;;;;;4.53;3.05;;;19.20;99.90;;;;;;4919122;29;20231;-71
2022/12/27 08:09:56;;;;;;;4.40;2.42;;;19.20;99.90;;;;;;4919040;29;20592;-71
2022/12/27 08:12:23;;;;;;;5.13;2.83;;;19.30;99.90;;;;;;4919133;29;20205;-71
2022/12/27 08:14:49;;;;;;;6.88;2.83;;;19.20;99.90;;;;;;4918780;29;20205;-71
2022/12/27 08:17:20;;;;;;;3.28;2.88;;;19.20;99.90;;;;;;4919024;29;20221;-71
2022/12/27 08:19:46;;;;;;;5.45;2.95;;;19.20;99.90;;;;;;4918668;29;20257;-71
2022/12/27 08:22:14;;;;;;;4.95;2.53;;;19.30;99.90;;;;;;4918929;29;20208;-71
2022/12/27 08:24:42;;;;;;;2.70;2.50;;;19.30;99.90;;;;;;4918560;29;20691;-71
2022/12/27 08:27:09;;;;;;;2.28;2.15;;;19.20;99.90;;;;;;4918741;29;20220;-71
2022/12/27 08:29:36;;;;;;;2.75;2.58;;;19.30;99.90;;;;;;4918434;29;20208;-71
2022/12/27 08:32:03;;;;;;;4.78;2.70;;;19.20;99.90;;;;;;4918723;29;20257;-71
2022/12/27 08:34:30;;;;;;;3.55;2.75;;;19.20;99.90;;;;;;4917810;29;20201;-71
2022/12/27 08:36:57;;;;;;;4.25;2.40;;;19.20;99.90;;;;;;4918602;29;20600;-71
2022/12/27 08:39:24;;;;;;;2.80;2.60;;;19.20;99.90;;;;;;4918211;29;20697;-71
2022/12/27 08:41:53;;;;;;;3.95;2.67;;;19.30;99.90;;;;;;4918587;29;20672;-71
2022/12/27 08:44:20;;;;;;;3.78;2.38;;;19.20;99.90;;;;;;4918522;29;20236;-71
2022/12/27 08:46:47;;;;;;;8.25;2.55;;;19.20;99.90;;;;;;4918368;29;20225;-71
2022/12/27 08:49:13;;;;;;;5.30;2.95;;;19.20;99.90;;;;;;4918431;29;20617;-71
2022/12/27 08:51:40;;;;;;;3.88;2.78;;;19.30;99.90;;;;;;4918600;29;20272;-71
2022/12/27 08:54:07;;;;;;;2.67;2.42;;;19.30;99.90;;;;;;4918371;29;20213;-71
2022/12/27 08:56:33;;;;;;;5.30;2.83;;;19.30;99.90;;;;;;4918257;29;20251;-71
2022/12/27 08:59:02;;;;;;;3.47;2.55;;;19.20;99.90;;;;;;4918145;29;20221;-71
2022/12/27 09:01:28;;;;;;;5.72;3.00;;;19.20;99.90;;;;;;4917907;29;20676;-71
2022/12/27 09:03:55;;;;;;;11.07;2.70;;;19.30;99.90;;;;;;4917927;29;20605;-71
2022/12/27 09:06:26;;;;;;;5.00;2.40;;;19.30;99.90;;;;;;4918311;29;20224;-70
2022/12/27 09:08:54;;;;;;;10.77;3.58;;;19.30;99.90;;;;;;4917957;29;20209;-74
2022/12/27 09:11:23;;;;;;;17.27;4.05;;;19.40;99.90;;;;;;4918844;29;20542;-77
2022/12/27 09:13:51;;;;;;;8.82;4.18;;;19.20;99.90;;;;;;4918181;29;20216;-75
2022/12/27 09:16:21;;;;;;;7.03;4.47;;;19.40;99.90;;;;;;4918265;29;20720;-77
2022/12/27 09:18:49;;;;;;;4.93;4.43;;;19.00;99.90;;;;;;4918501;29;20221;-75
2022/12/27 09:21:18;;;;;;;5.32;4.78;;;18.30;95.20;;;;;;4918042;29;20200;-75
2022/12/27 09:23:45;;;;;;;4.28;3.92;;;17.70;91.20;;;;;;4918065;29;20209;-75
2022/12/27 09:26:13;;;;;;;5.00;4.28;;;17.40;89.20;;;;;;4918183;29;20236;-75
2022/12/27 09:28:41;;;;;;;5.05;4.63;;;17.10;85.40;;;;;;4918270;29;20233;-73
2022/12/27 09:31:09;;;;;;;4.10;3.80;;;16.90;81.70;;;;;;4917891;29;20700;-78
2022/12/27 09:33:37;;;;;;;9.20;4.47;;;17.00;88.50;;;;;;4918402;29;20265;-76
2022/12/27 09:36:06;;;;;;;7.30;3.80;;;17.40;92.30;;;;;;4917429;29;20596;-76
2022/12/27 09:38:33;;;;;;;4.97;3.72;;;17.70;93.50;;;;;;4917952;29;20220;-78
2022/12/27 09:41:03;;;;;;;6.72;4.18;;;18.20;94.10;;;;;;4917561;29;20205;-77
2022/12/27 09:43:40;;;;;;;10.13;4.03;;;18.30;94.00;;;;;;4918024;29;20197;-76
2022/12/27 09:46:14;;;;;;;6.95;3.65;;;18.80;94.30;;;;;;4920941;29;20225;-77
2022/12/27 09:48:42;;;;;;;17.60;4.07;;;19.00;94.60;;;;;;4920541;29;20192;-72
2022/12/27 09:51:18;;;;;;;13.20;4.15;;;19.20;94.60;;;;;;4925121;29;20212;-73
2022/12/27 09:53:51;;;;;;;6.18;3.20;;;19.40;94.20;;;;;;4925318;29;20205;-72
2022/12/27 09:56:25;;;;;;;9.07;3.30;;;19.60;93.80;;;;;;4926103;29;20227;-71
2022/12/27 09:58:55;;;;;;;11.77;3.97;;;19.70;93.30;;;;;;4926787;29;20217;-72
2022/12/27 10:01:24;;;;;;;14.48;3.78;;;19.80;92.70;;;;;;4926896;29;20213;-73
2022/12/27 10:03:53;;;;;;;7.47;3.08;;;19.90;92.20;;;;;;4926818;29;20252;-73
2022/12/27 10:06:38;;;;;;;8.18;3.47;;;20.00;91.80;;;;;;4927774;29;20312;-73
2022/12/27 10:09:20;;;;;;;5.90;3.15;;;20.10;91.60;;;;;;4923758;29;20673;-73
2022/12/27 10:11:54;;;;;;;9.85;3.72;;;20.10;91.30;;;;;;4924735;29;20189;-73
2022/12/27 10:14:32;;;;;;;13.93;3.40;;;20.20;91.10;;;;;;4923668;29;20616;-72
2022/12/27 10:17:07;;;;;;;11.00;3.40;;;20.20;90.90;;;;;;4925286;29;20302;-73
2022/12/27 10:19:49;;;;;;;8.90;2.92;;;20.30;90.90;;;;;;4925943;29;20248;-73
2022/12/27 10:22:27;;;;;;;11.75;3.50;;;20.40;90.70;;;;;;4925570;29;20192;-73
2022/12/27 10:24:59;;;;;;;10.88;3.38;;;20.40;90.60;;;;;;4923739;29;20201;-73
2022/12/27 10:27:28;;;;;;;9.27;2.90;;;20.50;90.60;;;;;;4924681;29;20221;-73
2022/12/27 10:29:58;;;;;;;7.20;3.60;;;20.50;90.60;;;;;;4925354;29;20218;-73
2022/12/27 10:32:28;;;;;;;14.45;3.60;;;20.50;90.90;;;;;;4925648;29;20313;-73
2022/12/27 10:34:59;;;;;;;7.47;3.45;;;20.60;90.50;;;;;;4925983;29;20209;-73
2022/12/27 10:37:26;;;;;;;11.10;3.20;;;20.60;90.60;;;;;;4926856;29;20221;-75
2022/12/27 10:39:52;;;;;;;7.85;2.90;;;20.70;90.70;;;;;;4923348;29;20284;-74
2022/12/27 10:42:34;;;;;;;6.55;3.05;;;20.60;90.60;;;;;;4919860;29;20672;-82
2022/12/27 10:45:26;;;;;;;10.20;2.83;;;20.60;90.40;;;;;;4921441;29;20564;-80
2022/12/27 10:47:54;;;;;;;8.55;2.80;;;20.70;90.30;;;;;;4921034;29;20205;-79
2022/12/27 10:50:24;;;;;;;11.82;3.33;;;20.70;90.40;;;;;;4921171;29;20197;-78
2022/12/27 10:52:52;;;;;;;9.15;3.03;;;20.70;90.30;;;;;;4917881;29;20208;-74
2022/12/27 10:55:32;;;;;;;15.65;2.88;;;20.70;90.20;;;;;;4919958;29;20209;-76
2022/12/27 10:57:59;;;;;;;9.48;3.00;;;20.70;90.10;;;;;;4923013;29;20248;-77
2022/12/27 11:00:26;;;;;;;8.13;3.03;;;20.70;90.10;;;;;;4923329;29;20213;-78
2022/12/27 11:02:55;;;;;;;9.18;3.28;;;20.70;90.00;;;;;;4922208;29;20213;-80
2022/12/27 11:05:26;;;;;;;7.03;3.00;;;20.60;89.50;;;;;;4923345;29;20212;-78
2022/12/27 11:07:52;;;;;;;7.65;2.90;;;20.60;89.40;;;;;;4924570;29;20193;-77
2022/12/27 11:10:21;;;;;;;11.40;3.40;;;20.50;89.10;;;;;;4922445;29;20211;-77
2022/12/27 11:12:56;;;;;;;4.32;3.00;;;20.50;88.60;;;;;;4922479;29;20687;-77
2022/12/27 11:15:24;;;;;;;6.20;3.40;;;20.50;88.70;;;;;;4922871;29;20217;-76
2022/12/27 11:17:55;;;;;;;6.35;2.92;;;20.40;88.60;;;;;;4923446;29;20209;-76
2022/12/27 11:20:26;;;;;;;7.53;3.30;;;20.40;88.40;;;;;;4922813;29;20220;-76
2022/12/27 11:22:55;;;;;;;6.90;3.63;;;20.30;89.60;;;;;;4922941;29;20192;-75
2022/12/27 11:25:23;;;;;;;17.08;3.70;;;20.30;89.40;;;;;;4922933;29;20204;-77
2022/12/27 11:27:52;;;;;;;18.02;3.33;;;20.20;90.10;;;;;;4923676;29;20204;-76
2022/12/27 11:30:25;;;;;;;11.63;3.70;;;20.30;90.40;;;;;;4922943;29;20295;-77
2022/12/27 11:32:52;;;;;;;11.70;3.40;;;20.20;90.50;;;;;;4921794;29;20287;-78
2022/12/27 11:35:21;;;;;;;16.70;3.72;;;20.20;90.60;;;;;;4921300;29;20213;-79
2022/12/27 14:29:24;;;;;;;5.22;1.80;;;19.20;95.80;;;;;;5707893;23;20232;-73
2022/12/27 14:32:28;;;;;;;4.97;1.73;;;19.20;95.70;;;;;;4908474;29;20216;-73
2022/12/27 14:35:22;;;;;;;7.68;1.40;;;19.20;95.60;;;;;;4897864;29;20215;-74
2022/12/27 14:38:24;;;;;;;5.72;1.88;;;19.20;95.80;;;;;;4920902;29;20193;-73
2022/12/27 14:41:13;;;;;;;8.80;1.52;;;19.20;96.00;;;;;;4902199;29;20217;-72
2022/12/27 14:44:09;;;;;;;5.38;1.60;;;19.30;96.30;;;;;;4902105;29;20197;-73
2022/12/27 14:46:59;;;;;;;14.15;2.30;;;19.20;95.90;;;;;;4938967;23;20236;-77
2022/12/27 14:50:07;;;;;;;7.30;1.88;;;19.20;95.70;;;;;;4922318;29;20181;-77
2022/12/27 14:53:09;;;;;;;8.30;2.17;;;19.20;96.20;;;;;;4922271;29;20221;-75
2022/12/27 14:55:47;;;;;;;13.15;1.70;;;19.40;97.00;;;;;;4920670;29;20727;-79
2022/12/27 14:58:31;;;;;;;7.05;1.50;;;19.60;97.50;;;;;;4920551;29;20189;-78
2022/12/27 15:01:05;;;;;;;6.80;1.30;;;19.80;97.30;;;;;;4921766;29;20291;-77
2022/12/27 15:03:50;;;;;;;12.05;1.73;;;19.80;97.20;;;;;;4921514;29;20188;-77
2022/12/27 15:06:34;;;;;;;14.30;1.92;;;19.90;97.00;;;;;;4921594;29;20235;-77
2022/12/27 15:09:10;;;;;;;14.57;1.77;;;20.00;97.60;;;;;;4922272;29;20649;-77
2022/12/27 15:11:58;;;;;;;17.25;2.50;;;20.20;97.40;;;;;;4921092;29;20696;-77
2022/12/27 15:14:47;;;;;;;10.05;2.03;;;20.20;96.90;;;;;;4921117;29;20193;-77
2022/12/27 15:17:26;;;;;;;7.13;1.50;;;20.20;96.80;;;;;;4914384;29;20720;-77
2022/12/27 15:20:49;;;;;;;10.20;2.13;;;20.20;96.70;;;;;;4921260;29;20209;-77
2022/12/27 15:23:26;;;;;;;18.67;2.17;;;20.20;96.30;;;;;;4868502;29;20686;-77
2022/12/27 15:26:05;;;;;;;13.02;2.08;;;20.20;96.60;;;;;;4882484;29;20621;-77
2022/12/27 15:28:46;;;;;;;4.55;1.92;;;20.20;96.60;;;;;;4912331;29;20207;-77
2022/12/27 15:31:21;;;;;;;9.20;1.90;;;20.10;96.70;;;;;;4921924;29;20534;-77
2022/12/27 15:34:02;;;;;;;7.68;1.50;;;20.10;96.80;;;;;;4921963;29;20193;-77
2022/12/27 15:36:39;;;;;;;7.60;1.63;;;20.20;97.00;;;;;;4922021;29;20595;-77
2022/12/27 15:39:47;;;;;;;6.07;1.85;;;20.00;97.10;;;;;;4921944;29;20189;-78
2022/12/27 15:42:42;;;;;;;4.22;1.40;;;20.00;96.90;;;;;;4921952;29;20665;-77
2022/12/27 15:45:24;;;;;;;7.88;1.77;;;20.00;97.10;;;;;;4922403;29;20197;-77
2022/12/27 15:48:24;;;;;;;3.97;1.30;;;20.10;97.70;;;;;;4922273;29;20227;-77
2022/12/27 15:51:00;;;;;;;5.13;1.52;;;19.90;97.70;;;;;;4922252;29;20189;-77
2022/12/27 15:53:48;;;;;;;13.98;1.98;;;20.10;98.20;;;;;;4922911;29;20271;-77
2022/12/27 15:56:31;;;;;;;2.78;1.52;;;20.00;98.00;;;;;;4920604;29;20815;-77
2022/12/27 15:59:34;;;;;;;6.35;2.25;;;19.90;98.20;;;;;;4921233;29;20218;-75
2022/12/27 16:02:23;;;;;;;5.50;1.48;;;19.90;98.10;;;;;;4920900;29;20216;-75
2022/12/27 16:04:52;;;;;;;8.95;1.52;;;19.90;98.40;;;;;;4922039;29;20201;-75
2022/12/27 16:07:40;;;;;;;13.45;1.83;;;20.00;98.50;;;;;;4922610;29;20232;-80
2022/12/27 16:10:44;;;;;;;8.35;1.58;;;19.90;98.60;;;;;;4923189;29;20629;-79
2022/12/27 16:13:29;;;;;;;11.73;1.35;;;19.90;98.50;;;;;;4920527;29;20204;-77
2022/12/27 16:15:57;;;;;;;4.07;1.48;;;20.00;99.00;;;;;;4921923;29;20225;-79
2022/12/27 16:18:53;;;;;;;7.22;1.95;;;19.90;98.80;;;;;;4923047;29;20228;-79
2022/12/27 16:21:22;;;;;;;9.85;1.67;;;19.90;98.80;;;;;;4923522;29;20252;-77
2022/12/27 16:23:53;;;;;;;10.02;2.22;;;20.00;99.90;;;;;;4922135;29;20205;-81
2022/12/27 16:26:22;;;;;;;16.67;2.40;;;19.80;99.20;;;;;;4923649;29;20232;-81
2022/12/27 16:28:56;;;;;;;8.20;1.88;;;19.80;99.40;;;;;;4923054;29;20229;-80
2022/12/27 16:31:26;;;;;;;5.68;1.83;;;19.90;99.50;;;;;;4922697;29;20581;-79
2022/12/27 16:33:55;;;;;;;7.55;1.75;;;19.80;99.60;;;;;;4922703;29;20213;-80
2022/12/27 16:36:25;;;;;;;9.55;2.30;;;19.90;99.70;;;;;;4922549;29;20220;-76
2022/12/27 16:39:20;;;;;;;8.55;1.80;;;19.90;99.80;;;;;;4922564;29;20212;-79
2022/12/27 16:42:04;;;;;;;7.65;1.70;;;19.80;99.50;;;;;;4923016;29;20240;-82
2022/12/27 16:44:49;;;;;;;7.40;1.92;;;19.90;99.90;;;;;;4922835;29;20193;-79
2022/12/27 16:47:45;;;;;;;9.18;1.85;;;19.90;99.90;;;;;;4921323;29;20236;-79
2022/12/27 16:50:52;;;;;;;8.95;2.05;;;19.80;99.90;;;;;;4923754;29;20189;-80
2022/12/27 16:53:52;;;;;;;5.93;2.47;;;19.80;99.90;;;;;;4922683;29;20217;-80
2022/12/27 16:56:22;;;;;;;2.78;1.60;;;19.80;99.90;;;;;;4920974;29;20229;-78
2022/12/27 16:58:49;;;;;;;5.00;1.38;;;19.80;99.90;;;;;;4923309;29;20197;-77
2022/12/27 17:01:53;;;;;;;6.80;1.67;;;20.10;99.90;;;;;;4922974;29;20224;-78
2022/12/27 17:04:55;;;;;;;7.30;1.90;;;19.80;99.90;;;;;;4921764;29;20219;-77
2022/12/27 17:07:48;;;;;;;7.70;1.60;;;19.80;99.90;;;;;;4921248;29;20184;-79
2022/12/27 17:10:44;;;;;;;6.95;2.47;;;19.80;99.80;;;;;;4925462;29;20192;-81
2022/12/27 17:13:17;;;;;;;11.93;1.92;;;19.80;99.90;;;;;;4924381;29;20233;-77
2022/12/27 17:15:51;;;;;;;9.15;1.88;;;19.80;99.90;;;;;;4920778;29;20220;-79
2022/12/27 17:18:27;;;;;;;6.28;1.80;;;19.80;99.90;;;;;;4919828;29;20188;-79
2022/12/27 17:21:01;;;;;;;8.77;2.22;;;19.80;99.90;;;;;;4919544;29;20260;-79
2022/12/27 17:23:28;;;;;;;10.18;1.90;;;19.80;99.90;;;;;;4920309;29;20714;-80
2022/12/27 17:26:12;;;;;;;7.68;2.17;;;19.80;99.90;;;;;;4920630;29;20251;-80
2022/12/27 17:28:50;;;;;;;9.43;1.90;;;19.70;99.90;;;;;;4920179;29;20186;-80
2022/12/27 17:31:25;;;;;;;14.10;2.20;;;19.70;99.90;;;;;;4920164;29;20193;-80
2022/12/27 17:34:04;;;;;;;4.82;1.80;;;19.70;99.90;;;;;;4919886;29;20188;-80
2022/12/27 17:36:45;;;;;;;3.88;1.92;;;19.70;99.90;;;;;;4920688;29;20767;-77
2022/12/27 17:39:27;;;;;;;6.72;2.20;;;19.70;99.90;;;;;;4921516;29;20244;-75
2022/12/27 17:45:09;;;;;;;9.80;2.20;;;19.60;99.90;;;;;;4928071;29;20204;-75
2022/12/27 17:48:03;;;;;;;15.43;2.63;;;19.70;99.90;;;;;;4926051;29;20189;-75
2022/12/27 17:50:35;;;;;;;9.43;2.03;;;19.70;99.90;;;;;;4924918;29;20189;-74
2022/12/27 17:59:04;;;;;;;7.43;2.08;;;19.70;99.90;;;;;;4921308;29;20188;-74
2022/12/27 18:01:34;;;;;;;10.93;2.20;;;19.70;99.90;;;;;;4923411;29;20232;-75
2022/12/27 18:04:02;;;;;;;7.80;1.73;;;19.70;99.90;;;;;;4922881;29;20687;-73
2022/12/27 18:06:32;;;;;;;11.07;1.90;;;19.70;99.90;;;;;;4925645;29;20224;-77
2022/12/27 18:08:59;;;;;;;9.65;2.08;;;19.70;99.90;;;;;;4926460;29;20311;-76
2022/12/27 18:11:29;;;;;;;9.52;1.92;;;19.80;99.90;;;;;;4927408;29;20205;-76
2022/12/27 18:13:59;;;;;;;10.77;2.03;;;19.90;99.90;;;;;;4927167;29;20217;-76
2022/12/27 18:16:35;;;;;;;9.25;1.80;;;19.80;99.90;;;;;;4930029;29;20225;-75
2022/12/27 18:19:03;;;;;;;9.65;1.70;;;19.80;99.90;;;;;;4929445;29;20200;-75
2022/12/27 18:21:32;;;;;;;8.05;1.45;;;19.80;99.90;;;;;;4929617;29;20316;-77
2022/12/27 18:23:59;;;;;;;11.80;1.48;;;20.00;99.90;;;;;;4929082;29;20209;-77
2022/12/27 18:26:36;;;;;;;6.05;2.20;;;19.80;99.90;;;;;;4928929;29;20233;-77
2022/12/27 18:29:05;;;;;;;12.00;1.98;;;19.80;99.90;;;;;;4930676;29;20199;-75
2022/12/27 18:31:36;;;;;;;5.28;1.52;;;19.80;99.90;;;;;;4928738;29;20212;-76
2022/12/27 18:34:06;;;;;;;5.18;1.90;;;19.80;99.90;;;;;;4927104;29;20220;-75
2022/12/27 18:36:39;;;;;;;8.32;1.30;;;19.80;99.90;;;;;;4924314;29;20236;-78
2022/12/27 18:39:26;;;;;;;8.20;1.50;;;19.90;99.90;;;;;;4924276;29;20197;-78
2022/12/27 18:41:54;;;;;;;6.65;1.80;;;19.60;99.90;;;;;;4926952;29;20248;-78
2022/12/27 18:44:28;;;;;;;13.38;1.85;;;18.70;99.90;;;;;;4927507;29;20263;-78
2022/12/27 18:47:05;;;;;;;5.95;1.80;;;19.70;99.90;;;;;;4936535;29;20252;-78
2022/12/27 18:49:40;;;;;;;5.07;1.35;;;19.80;99.90;;;;;;4936206;29;20184;-78
2022/12/27 18:52:31;;;;;;;3.85;1.58;;;19.70;99.90;;;;;;4931846;29;20207;-78
2022/12/27 18:55:42;;;;;;;9.23;1.77;;;19.70;99.90;;;;;;4931965;29;20220;-81
2022/12/27 18:58:19;;;;;;;9.95;1.67;;;19.80;99.90;;;;;;4859499;29;20243;-81
2022/12/27 19:00:49;;;;;;;4.65;1.63;;;19.70;99.90;;;;;;4851891;29;20264;-81
2022/12/27 19:03:23;;;;;;;5.60;2.15;;;19.80;99.90;;;;;;4857616;29;20215;-82
2022/12/27 19:06:22;;;;;;;4.65;1.88;;;20.30;99.90;;;;;;4858885;29;20239;-82
2022/12/27 19:09:06;;;;;;;4.35;1.52;;;19.90;99.90;;;;;;4854598;29;20204;-81
2022/12/27 19:11:34;;;;;;;3.70;1.08;;;19.80;99.90;;;;;;4846606;29;20217;-81
2022/12/27 19:14:03;;;;;;;7.43;1.33;;;18.30;99.90;;;;;;4845703;29;20771;-80
2022/12/27 19:16:33;;;;;;;5.82;1.42;;;20.50;99.90;;;;;;4845253;29;20337;-80
2022/12/27 19:19:08;;;;;;;5.97;1.23;;;20.20;99.90;;;;;;4845947;29;20582;-79
2022/12/27 19:21:41;;;;;;;11.27;2.05;;;19.70;99.90;;;;;;4924028;29;20283;-80
2022/12/27 19:24:32;;;;;;;9.63;1.90;;;19.90;99.90;;;;;;4923850;29;20215;-81
2022/12/27 19:27:01;;;;;;;8.95;1.83;;;19.40;99.90;;;;;;4923545;29;20315;-79
2022/12/27 19:29:31;;;;;;;6.63;1.50;;;20.00;99.90;;;;;;4923583;29;20201;-79
2022/12/27 19:32:03;;;;;;;5.47;1.85;;;20.10;99.90;;;;;;4922371;29;20613;-77
2022/12/27 19:34:37;;;;;;;2.03;1.20;;;21.40;99.90;;;;;;4920032;29;20237;-76
2022/12/27 19:37:04;;;;;;;5.10;1.50;;;20.60;99.90;;;;;;4919524;29;20276;-76
2022/12/27 19:39:35;;;;;;;3.72;1.38;;;21.00;99.90;;;;;;4919714;29;20295;-76
2022/12/27 19:42:05;;;;;;;9.82;1.42;;;22.40;99.90;;;;;;4920147;29;20229;-76
2022/12/27 19:44:33;;;;;;;3.97;1.30;;;18.70;99.90;;;;;;4919707;29;20264;-76
2022/12/27 19:47:00;;;;;;;10.50;1.33;;;20.90;99.90;;;;;;4919258;29;20319;-76
2022/12/27 19:49:27;;;;;;;5.00;1.30;;;20.20;99.90;;;;;;4919662;29;20204;-77
2022/12/27 19:51:56;;;;;;;3.90;1.40;;;21.50;99.90;;;;;;4919488;29;20220;-76
2022/12/27 19:54:24;;;;;;;2.65;1.00;;;20.60;99.90;;;;;;4919263;29;20218;-76
2022/12/27 19:56:52;;;;;;;1.67;1.17;;;21.10;99.90;;;;;;4919429;29;20228;-76
2022/12/27 19:59:21;;;;;;;2.80;1.10;;;19.70;99.90;;;;;;4919128;29;20244;-76
2022/12/27 20:01:49;;;;;;;3.13;1.00;;;19.10;99.90;;;;;;4919306;29;20224;-77
2022/12/27 20:04:17;;;;;;;2.20;0.80;;;19.60;99.90;;;;;;4919319;29;20291;-77
2022/12/27 20:06:46;;;;;;;5.22;1.38;;;22.60;99.90;;;;;;4919322;29;20232;-76
2022/12/27 20:09:18;;;;;;;4.93;1.10;;;20.00;99.90;;;;;;4919273;29;20296;-76
2022/12/27 20:11:46;;;;;;;1.85;1.08;;;19.60;99.90;;;;;;4919481;29;20240;-76
2022/12/27 20:14:16;;;;;;;8.55;1.10;;;19.90;99.90;;;;;;4919322;29;20240;-76
2022/12/27 20:16:46;;;;;;;6.57;1.27;;;19.70;99.90;;;;;;4919254;29;20228;-76
2022/12/27 20:19:15;;;;;;;6.32;1.00;;;20.40;99.90;;;;;;4919130;29;20199;-76
2022/12/27 20:21:42;;;;;;;2.88;0.90;;;21.00;99.90;;;;;;4918623;29;20707;-77
2022/12/27 20:24:11;;;;;;;1.70;1.00;;;19.40;99.90;;;;;;4918722;29;20219;-76
2022/12/27 20:26:39;;;;;;;3.08;0.93;;;22.10;99.90;;;;;;4918562;29;20231;-76
2022/12/27 20:29:08;;;;;;;4.95;0.95;;;21.80;99.90;;;;;;4918542;29;20696;-76
2022/12/27 20:31:37;;;;;;;0.95;0.90;;;20.70;99.90;;;;;;4918531;29;20197;-77
2022/12/27 20:34:10;;;;;;;1.13;0.80;;;19.70;99.90;;;;;;4918392;29;20260;-77
2022/12/27 20:36:36;;;;;;;3.63;1.20;;;20.40;99.90;;;;;;4918612;29;20774;-76
2022/12/27 20:39:05;;;;;;;3.95;0.93;;;20.10;99.90;;;;;;4918616;29;20287;-75
2022/12/27 20:41:32;;;;;;;3.17;0.98;;;20.00;99.90;;;;;;4918208;29;20714;-76
2022/12/27 20:43:59;;;;;;;1.80;0.98;;;21.40;99.90;;;;;;4918398;29;20204;-76
2022/12/27 20:46:26;;;;;;;2.75;1.00;;;18.50;99.90;;;;;;4942819;23;20233;-83
2022/12/27 20:49:02;;;;;;;1.92;0.80;;;20.50;99.90;;;;;;4921811;29;20215;-83
2022/12/27 20:51:40;;;;;;;9.32;1.13;;;19.30;99.90;;;;;;4921954;29;20287;-84
2022/12/27 21:01:56;;;;;;;;;;;;;;;;;;;;;
2022/12/27 21:15:13;;;;;;;;;;;;;;;;;;;;;
2022/12/27 21:17:42;;;;;;;1.67;1.00;;;19.00;99.90;;;;;;4880192;29;20237;-82
2022/12/27 21:20:10;;;;;;;3.20;1.10;;;19.60;99.90;;;;;;4903797;29;20713;-81
2022/12/27 21:22:37;;;;;;;2.33;1.05;;;19.60;99.90;;;;;;4901856;29;20225;-77
2022/12/27 21:25:04;;;;;;;1.98;1.27;;;19.50;99.90;;;;;;4899979;29;20292;-77
2022/12/27 21:27:31;;;;;;;1.77;0.98;;;19.60;99.90;;;;;;4901134;29;20230;-77
2022/12/27 21:29:57;;;;;;;2.65;0.93;;;19.70;99.90;;;;;;4900873;29;20211;-76
2022/12/27 21:32:24;;;;;;;1.77;1.10;;;19.60;99.90;;;;;;4899579;29;20202;-76
2022/12/27 21:34:52;;;;;;;2.88;1.20;;;19.60;99.90;;;;;;4900217;29;20217;-76
2022/12/27 21:37:20;;;;;;;2.28;1.02;;;19.60;99.90;;;;;;4899738;29;20749;-77
2022/12/27 21:39:47;;;;;;;3.10;0.90;;;19.30;99.90;;;;;;4901289;29;20229;-76
2022/12/27 21:42:13;;;;;;;3.13;1.20;;;19.50;99.90;;;;;;4899474;29;20233;-78
2022/12/27 21:44:40;;;;;;;2.60;1.50;;;19.50;99.90;;;;;;4899519;29;20261;-78
2022/12/27 21:47:07;;;;;;;1.67;1.15;;;19.50;99.90;;;;;;4898919;29;20233;-78
2022/12/27 21:49:35;;;;;;;3.08;1.10;;;19.50;99.90;;;;;;4899915;29;20696;-78
2022/12/27 21:52:03;;;;;;;3.15;1.23;;;19.50;99.90;;;;;;4899753;29;20656;-78
2022/12/27 21:54:30;;;;;;;5.22;1.40;;;19.50;99.90;;;;;;4899168;29;20210;-76
2022/12/27 21:56:57;;;;;;;4.38;1.30;;;19.60;99.90;;;;;;4898642;29;20233;-78
2022/12/27 21:59:23;;;;;;;5.50;1.27;;;19.50;99.90;;;;;;4898912;29;20213;-78
2022/12/27 22:01:50;;;;;;;2.00;1.25;;;19.70;99.90;;;;;;4898657;29;20225;-78
2022/12/27 22:04:16;;;;;;;1.40;1.20;;;19.50;99.90;;;;;;4898607;29;20209;-78
2022/12/27 22:06:43;;;;;;;3.05;1.17;;;19.70;99.90;;;;;;4898489;29;20232;-78
2022/12/27 22:09:11;;;;;;;1.33;1.13;;;19.60;99.90;;;;;;4898575;29;20281;-78
2022/12/27 22:11:39;;;;;;;1.10;0.98;;;19.20;99.90;;;;;;4899016;29;20204;-78
2022/12/27 22:14:06;;;;;;;1.73;1.08;;;19.60;99.90;;;;;;4899500;29;20217;-78
2022/12/27 22:16:35;;;;;;;2.35;1.40;;;19.40;99.90;;;;;;4899977;29;20229;-78
2022/12/27 22:19:02;;;;;;;4.20;1.42;;;19.50;99.90;;;;;;4898720;29;20696;-78
2022/12/27 22:21:31;;;;;;;3.72;1.17;;;19.60;99.90;;;;;;4899462;29;20229;-79
2022/12/27 22:23:59;;;;;;;0.90;0.90;;;19.40;99.90;;;;;;4899324;29;20254;-78
2022/12/27 22:26:29;;;;;;;1.10;1.00;;;19.60;99.90;;;;;;4898102;29;20773;-78